createdAt,value
2022-08-25T00:02:36.095Z,67270.47
2022-08-25T00:07:39.924Z,67268.19
2022-08-25T00:12:44.974Z,67279.66
2022-08-25T00:17:49.181Z,67262.31
2022-08-25T00:22:53.503Z,67215.31
2022-08-25T00:27:59.249Z,67224.47
2022-08-25T00:33:04.000Z,67201.81
2022-08-25T00:38:07.669Z,67166.19
2022-08-25T00:43:13.956Z,67152.72
2022-08-25T00:48:17.650Z,67194.28
2022-08-25T00:53:21.409Z,67173.81
2022-08-25T00:58:29.565Z,67229.28
2022-08-25T01:03:35.650Z,67199.25
2022-08-25T01:08:40.131Z,67218.50
2022-08-25T01:13:49.481Z,67206.75
2022-08-25T01:18:56.648Z,67209.38
2022-08-25T01:24:02.642Z,67209.97
2022-08-25T01:29:25.720Z,67195.34
2022-08-25T01:34:31.619Z,67295.25
2022-08-25T01:39:37.391Z,67308.81
2022-08-25T01:44:45.145Z,67283.91
2022-08-25T01:49:49.053Z,67218.41
2022-08-25T01:54:54.229Z,67252.53
2022-08-25T01:59:58.004Z,67286.69
2022-08-25T02:05:01.763Z,67306.66
2022-08-25T02:10:08.744Z,67330.41
2022-08-25T02:15:12.578Z,67267.78
2022-08-25T02:20:16.296Z,67315.78
2022-08-25T02:25:21.807Z,67322.31
2022-08-25T02:30:25.844Z,67373.47
2022-08-25T02:35:30.511Z,67320.66
2022-08-25T02:40:36.055Z,67398.97
2022-08-25T02:45:39.810Z,67361.25
2022-08-25T02:50:48.456Z,67286.53
2022-08-25T02:55:53.598Z,67201.88
2022-08-25T03:00:57.961Z,67161.41
2022-08-25T03:06:01.790Z,67132.31
2022-08-25T03:11:07.722Z,67121.41
2022-08-25T03:16:12.454Z,67144.06
2022-08-25T03:21:17.817Z,67137.66
2022-08-25T03:26:40.646Z,67148.91
2022-08-25T03:31:44.919Z,67187.63
2022-08-25T03:36:52.292Z,67265.00
2022-08-25T03:41:57.427Z,67274.78
2022-08-25T03:47:01.335Z,67265.53
2022-08-25T03:52:06.000Z,67179.16
2022-08-25T03:57:11.260Z,67197.03
2022-08-25T04:02:15.116Z,67151.81
2022-08-25T04:07:19.930Z,67109.59
2022-08-25T04:12:25.203Z,67147.25
2022-08-25T04:17:29.019Z,67099.88
2022-08-25T04:22:36.731Z,67124.69
2022-08-25T04:27:42.141Z,67210.94
2022-08-25T04:32:45.820Z,67297.00
2022-08-25T04:37:49.548Z,67380.72
2022-08-25T04:42:54.695Z,67415.31
2022-08-25T04:48:01.001Z,67439.03
2022-08-25T04:58:14.661Z,67481.88
2022-08-25T05:03:20.933Z,67490.94
2022-08-25T05:08:25.211Z,67487.22
2022-08-25T05:13:30.298Z,67513.16
2022-08-25T05:18:36.181Z,67534.84
2022-08-25T05:23:42.315Z,67440.66
2022-08-25T05:28:48.351Z,67477.50
2022-08-25T05:33:53.070Z,67586.75
2022-08-25T05:38:57.080Z,67482.34
2022-08-25T05:44:02.658Z,67513.72
2022-08-25T05:49:07.023Z,67508.88
2022-08-25T05:54:11.487Z,67359.56
2022-08-25T05:59:19.518Z,67227.78
2022-08-25T06:04:23.720Z,67228.41
2022-08-25T06:09:30.094Z,67308.94
2022-08-25T06:14:36.356Z,67281.88
2022-08-25T06:19:44.562Z,67417.25
2022-08-25T06:24:49.660Z,67528.84
2022-08-25T06:29:56.110Z,67402.81
2022-08-25T06:35:02.140Z,67531.59
2022-08-25T06:40:10.706Z,67483.44
2022-08-25T06:45:20.068Z,67440.66
2022-08-25T06:50:27.567Z,67358.00
2022-08-25T06:55:35.654Z,67374.22
2022-08-25T07:00:44.602Z,67516.50
2022-08-25T07:05:55.992Z,67568.81
2022-08-25T07:11:06.638Z,67587.34
2022-08-25T07:16:18.692Z,67618.72
2022-08-25T07:21:24.847Z,67710.91
2022-08-25T07:26:37.906Z,67857.69
2022-08-25T07:31:44.106Z,67943.97
2022-08-25T07:36:48.165Z,67845.19
2022-08-25T07:41:53.254Z,67760.69
2022-08-25T07:46:59.894Z,67834.38
2022-08-25T07:52:06.729Z,67810.56
2022-08-25T07:57:12.918Z,67820.25
2022-08-25T08:02:24.863Z,67921.00
2022-08-25T08:07:43.370Z,67975.91
2022-08-25T08:12:48.639Z,67881.06
2022-08-25T08:17:57.921Z,67936.19
2022-08-25T08:23:02.068Z,67944.97
2022-08-25T08:28:07.283Z,67993.78
2022-08-25T08:33:12.935Z,67906.47
2022-08-25T08:38:22.096Z,67891.81
2022-08-25T08:43:33.402Z,67975.84
2022-08-25T08:48:48.941Z,67934.72
2022-08-25T08:53:57.441Z,67923.22
2022-08-25T08:59:06.334Z,68003.00
2022-08-25T09:04:20.056Z,68064.34
2022-08-25T09:09:35.834Z,68068.69
2022-08-25T09:14:58.468Z,68023.28
2022-08-25T09:20:30.314Z,68016.09
2022-08-25T09:25:54.139Z,68130.06
2022-08-25T09:31:02.948Z,68112.72
2022-08-25T09:36:08.838Z,68148.53
2022-08-25T09:41:17.800Z,68134.88
2022-08-25T09:46:27.912Z,68177.38
2022-08-25T09:51:42.571Z,68231.63
2022-08-25T09:56:51.977Z,68176.81
2022-08-25T10:01:57.825Z,68216.44
2022-08-25T10:07:08.661Z,68187.16
2022-08-25T10:12:21.213Z,68264.22
2022-08-25T10:17:34.807Z,68178.38
2022-08-25T10:22:41.616Z,68179.47
2022-08-25T10:27:55.114Z,68331.69
2022-08-25T10:33:12.019Z,68353.47
2022-08-25T10:38:36.035Z,68322.44
2022-08-25T10:43:47.816Z,68323.00
2022-08-25T10:48:59.043Z,68318.03
2022-08-25T10:54:10.522Z,68311.56
2022-08-25T10:59:31.709Z,68370.88
2022-08-25T11:04:45.560Z,68409.38
2022-08-25T11:10:01.969Z,68437.19
2022-08-25T11:15:11.542Z,68454.53
2022-08-25T11:20:26.462Z,68486.66
2022-08-25T11:25:38.742Z,68456.75
2022-08-25T11:30:53.637Z,68471.94
2022-08-25T11:36:02.294Z,68573.72
2022-08-25T11:41:23.276Z,68790.56
2022-08-25T11:46:46.169Z,68917.09
2022-08-25T11:51:52.629Z,68856.47
2022-08-25T12:02:30.318Z,68888.69
2022-08-25T12:08:22.200Z,68860.81
2022-08-25T12:13:44.430Z,69031.09
2022-08-25T12:18:50.458Z,68881.56
2022-08-25T12:24:10.992Z,68866.78
2022-08-25T12:29:21.610Z,68939.94
2022-08-25T12:34:41.902Z,68999.91
2022-08-25T12:39:59.054Z,69011.91
2022-08-25T12:45:15.205Z,68973.22
2022-08-25T12:50:40.284Z,68936.13
2022-08-25T12:55:50.029Z,69001.53
2022-08-25T13:01:11.081Z,68964.47
2022-08-25T13:06:48.908Z,68902.28
2022-08-25T13:11:59.745Z,68970.97
2022-08-25T13:17:04.188Z,68884.81
2022-08-25T13:22:16.812Z,68871.22
2022-08-25T13:27:25.439Z,68983.00
2022-08-25T13:32:49.561Z,68953.56
2022-08-25T13:37:54.814Z,68919.75
2022-08-25T13:43:02.805Z,68872.84
2022-08-25T13:48:07.815Z,68971.56
2022-08-25T13:53:30.653Z,69054.47
2022-08-25T13:58:44.860Z,68901.22
2022-08-25T14:03:50.150Z,68978.66
2022-08-25T14:09:16.163Z,68931.69
2022-08-25T14:14:36.191Z,68897.94
2022-08-25T14:19:47.602Z,68870.66
2022-08-25T14:24:54.134Z,68983.00
2022-08-25T14:29:57.909Z,68936.13
2022-08-25T14:35:09.719Z,68912.66
2022-08-25T14:40:19.975Z,68933.38
2022-08-25T14:45:23.873Z,68847.19
2022-08-25T14:50:27.527Z,68837.94
2022-08-25T14:55:32.798Z,68859.75
2022-08-25T15:00:38.463Z,68867.41
2022-08-25T15:05:42.963Z,68924.09
2022-08-25T15:10:48.435Z,68939.88
2022-08-25T15:15:58.114Z,68914.78
2022-08-25T15:21:02.967Z,68832.47
2022-08-25T15:26:11.462Z,68878.28
2022-08-25T15:31:18.171Z,68788.88
2022-08-25T15:36:25.843Z,68875.00
2022-08-25T15:41:31.211Z,68818.88
2022-08-25T15:46:37.913Z,68833.56
2022-08-25T15:51:42.137Z,68784.50
2022-08-25T15:56:47.311Z,68798.13
2022-08-25T16:01:53.842Z,68811.28
2022-08-25T16:06:58.773Z,68772.03
2022-08-25T16:12:06.741Z,68883.72
2022-08-25T16:17:12.455Z,68748.00
2022-08-25T16:22:16.222Z,68811.22
2022-08-25T16:27:21.313Z,68749.69
2022-08-25T16:32:24.989Z,68623.28
2022-08-25T16:37:28.740Z,68514.31
2022-08-25T16:42:33.995Z,68453.97
2022-08-25T16:47:39.731Z,68348.47
2022-08-25T16:53:01.195Z,68320.22
2022-08-25T16:58:12.598Z,68333.75
2022-08-25T17:03:17.350Z,68342.44
2022-08-25T17:08:30.752Z,68309.31
2022-08-25T17:13:44.574Z,68224.50
2022-08-25T17:18:51.016Z,68205.00
2022-08-25T17:24:00.107Z,68210.47
2022-08-25T17:29:06.046Z,68167.00
2022-08-25T17:34:12.998Z,68112.59
2022-08-25T17:39:22.358Z,68067.00
2022-08-25T17:44:27.981Z,68107.25
2022-08-25T17:49:32.176Z,68126.09
2022-08-25T17:54:35.976Z,68066.47
2022-08-25T17:59:41.591Z,68063.25
2022-08-25T18:04:45.460Z,68024.66
2022-08-25T18:09:49.287Z,68017.59
2022-08-25T18:14:55.641Z,67980.22
2022-08-25T18:20:06.019Z,67998.63
2022-08-25T18:25:14.086Z,68047.47
2022-08-25T18:30:20.192Z,67986.09
2022-08-25T18:35:26.560Z,67956.34
2022-08-25T18:40:32.004Z,67957.88
2022-08-25T18:45:43.601Z,67950.34
2022-08-25T18:50:50.633Z,67950.91
2022-08-25T18:55:58.135Z,67909.72
2022-08-25T19:01:04.413Z,67870.09
2022-08-25T19:06:08.620Z,67888.56
2022-08-25T19:11:13.335Z,67844.53
2022-08-25T19:16:30.798Z,67837.00
2022-08-25T19:21:35.532Z,67860.75
2022-08-25T19:26:40.437Z,67859.19
2022-08-25T19:31:48.199Z,67835.34
2022-08-25T19:36:52.370Z,67844.06
2022-08-25T19:42:06.699Z,67813.63
2022-08-25T19:47:13.125Z,67803.88
2022-08-25T19:52:24.844Z,67743.25
2022-08-25T19:57:42.282Z,67657.66
2022-08-25T20:02:48.855Z,67616.03
2022-08-25T20:07:53.116Z,67613.81
2022-08-25T20:12:57.090Z,67600.81
2022-08-25T20:18:02.884Z,67568.81
2022-08-25T20:23:24.589Z,67600.22
2022-08-25T20:28:28.885Z,67569.41
2022-08-25T20:33:33.979Z,67544.47
2022-08-25T20:38:37.952Z,67522.34
2022-08-25T20:43:43.029Z,67494.25
2022-08-25T20:48:49.394Z,67515.38
2022-08-25T20:53:53.276Z,67520.66
2022-08-25T20:58:57.465Z,67544.50
2022-08-25T21:04:02.649Z,67564.00
2022-08-25T21:09:15.715Z,67574.69
2022-08-25T21:14:21.053Z,67565.50
2022-08-25T21:19:30.024Z,67544.47
2022-08-25T21:24:34.651Z,67536.47
2022-08-25T21:29:39.459Z,67504.97
2022-08-25T21:34:59.554Z,67487.63
2022-08-25T21:40:03.348Z,67478.50
2022-08-25T21:45:12.254Z,67476.22
2022-08-25T21:50:18.458Z,67446.00
2022-08-25T21:55:22.426Z,67460.59
2022-08-25T22:00:26.359Z,67446.00
2022-08-25T22:05:31.320Z,67357.00
2022-08-25T22:10:34.937Z,67292.56
2022-08-25T22:15:38.670Z,67349.81
2022-08-25T22:20:44.722Z,67310.38
2022-08-25T22:25:48.488Z,67234.09
2022-08-25T22:30:52.136Z,67281.16
2022-08-25T22:35:59.735Z,67170.50
2022-08-25T22:41:03.923Z,67120.22
2022-08-25T22:46:12.490Z,67071.06
2022-08-25T22:51:21.309Z,67077.63
2022-08-25T22:56:31.053Z,67049.56
2022-08-25T23:01:35.751Z,67010.25
2022-08-25T23:06:40.888Z,67094.25
2022-08-25T23:11:46.186Z,67111.16
2022-08-25T23:16:50.179Z,67165.03
2022-08-25T23:22:10.855Z,67218.00
2022-08-25T23:33:15.611Z,67237.47
2022-08-25T23:38:24.204Z,67237.84
2022-08-25T23:43:27.814Z,67107.28
2022-08-25T23:48:32.466Z,67173.75
2022-08-25T23:53:38.073Z,67204.44
2022-08-25T23:58:43.953Z,67133.81
